createdAt,value
2022-12-24T00:00:01.612Z,8.00
2022-12-24T00:02:50.527Z,7.90
2022-12-24T00:05:39.450Z,7.90
2022-12-24T00:08:32.987Z,7.90
2022-12-24T00:11:22.265Z,8.00
2022-12-24T00:14:10.960Z,8.00
2022-12-24T00:17:03.134Z,8.00
2022-12-24T00:19:51.891Z,7.90
2022-12-24T00:22:40.752Z,7.90
2022-12-24T00:25:30.977Z,8.00
2022-12-24T00:28:19.700Z,8.00
2022-12-24T00:31:13.549Z,8.10
2022-12-24T00:34:05.407Z,8.00
2022-12-24T00:36:54.346Z,8.00
2022-12-24T00:39:43.026Z,7.90
2022-12-24T00:42:33.143Z,8.00
2022-12-24T00:45:21.898Z,7.90
2022-12-24T00:48:10.623Z,8.00
2022-12-24T00:50:59.536Z,8.10
2022-12-24T00:53:48.607Z,8.10
2022-12-24T00:56:37.407Z,8.00
2022-12-24T00:59:27.952Z,8.00
2022-12-24T01:02:16.950Z,8.00
2022-12-24T01:05:12.511Z,8.00
2022-12-24T01:08:01.228Z,7.90
2022-12-24T01:10:49.953Z,8.00
2022-12-24T01:13:39.867Z,8.10
2022-12-24T01:16:30.103Z,8.10
2022-12-24T01:19:19.117Z,7.90
2022-12-24T01:22:07.878Z,8.00
2022-12-24T01:24:56.601Z,8.00
2022-12-24T01:27:45.256Z,7.90
2022-12-24T01:30:34.028Z,7.90
2022-12-24T01:33:24.196Z,7.90
2022-12-24T01:36:13.580Z,7.90
2022-12-24T01:39:02.372Z,7.90
2022-12-24T01:42:08.397Z,8.00
2022-12-24T01:44:57.243Z,8.00
2022-12-24T01:47:46.148Z,8.00
2022-12-24T01:50:36.522Z,8.00
2022-12-24T01:53:25.617Z,8.10
2022-12-24T01:56:15.783Z,8.10
2022-12-24T01:59:07.338Z,8.00
2022-12-24T02:01:56.387Z,8.10
2022-12-24T02:04:51.850Z,8.10
2022-12-24T02:07:43.059Z,8.10
2022-12-24T02:10:32.259Z,8.10
2022-12-24T02:13:22.268Z,8.10
2022-12-24T02:16:19.461Z,8.10
2022-12-24T02:19:33.345Z,8.10
2022-12-24T02:22:29.200Z,8.10
2022-12-24T02:25:43.223Z,8.00
2022-12-24T02:28:48.565Z,8.00
2022-12-24T02:31:43.230Z,8.00
2022-12-24T02:34:37.880Z,7.70
2022-12-24T02:37:31.103Z,7.70
2022-12-24T02:40:25.875Z,7.80
2022-12-24T02:43:17.688Z,7.90
2022-12-24T02:46:10.435Z,7.70
2022-12-24T02:49:01.775Z,7.50
2022-12-24T02:51:50.455Z,7.50
2022-12-24T02:54:39.485Z,7.50
2022-12-24T02:57:38.860Z,7.40
2022-12-24T03:00:28.724Z,7.30
2022-12-24T03:03:35.304Z,7.40
2022-12-24T03:06:34.804Z,7.60
2022-12-24T03:09:28.175Z,7.60
2022-12-24T03:12:21.320Z,7.50
2022-12-24T03:15:13.816Z,7.40
2022-12-24T03:18:04.518Z,7.40
2022-12-24T03:20:59.185Z,7.30
2022-12-24T03:23:49.547Z,7.20
2022-12-24T03:26:39.644Z,7.10
2022-12-24T03:29:28.459Z,7.10
2022-12-24T03:32:24.091Z,7.20
2022-12-24T03:35:13.126Z,7.20
2022-12-24T03:38:01.871Z,7.10
2022-12-24T03:40:51.979Z,7.10
2022-12-24T03:43:40.731Z,7.10
2022-12-24T03:46:29.640Z,7.00
2022-12-24T03:49:18.506Z,7.10
2022-12-24T03:52:07.341Z,7.00
2022-12-24T03:54:55.944Z,7.00
2022-12-24T03:57:46.032Z,7.00
2022-12-24T04:00:35.302Z,6.90
2022-12-24T04:03:24.385Z,6.80
2022-12-24T04:06:19.019Z,6.90
2022-12-24T04:09:07.735Z,7.20
2022-12-24T04:11:56.706Z,7.20
2022-12-24T04:14:47.584Z,7.00
2022-12-24T04:17:36.672Z,6.80
2022-12-24T04:20:25.508Z,6.80
2022-12-24T04:23:14.341Z,6.90
2022-12-24T04:26:03.954Z,6.80
2022-12-24T04:28:52.619Z,6.80
2022-12-24T04:31:42.914Z,6.80
2022-12-24T04:34:31.785Z,6.90
2022-12-24T04:37:20.630Z,6.90
2022-12-24T04:40:10.587Z,7.10
2022-12-24T04:42:59.383Z,7.00
2022-12-24T04:45:48.700Z,7.10
2022-12-24T04:48:39.616Z,7.00
2022-12-24T04:51:29.455Z,7.10
2022-12-24T04:54:18.152Z,7.20
2022-12-24T04:57:06.859Z,7.20
2022-12-24T04:59:55.590Z,7.10
2022-12-24T05:02:44.487Z,7.10
2022-12-24T05:05:34.735Z,7.10
2022-12-24T05:08:23.466Z,7.10
2022-12-24T05:11:14.476Z,6.90
2022-12-24T05:14:03.185Z,6.80
2022-12-24T05:16:51.961Z,6.60
2022-12-24T05:19:40.746Z,6.70
2022-12-24T05:22:48.189Z,6.60
2022-12-24T05:25:58.111Z,6.60
2022-12-24T05:28:46.876Z,6.60
2022-12-24T05:31:36.428Z,6.50
2022-12-24T05:34:25.238Z,6.60
2022-12-24T05:37:13.954Z,6.40
2022-12-24T05:40:04.597Z,6.50
2022-12-24T05:42:53.277Z,6.50
2022-12-24T05:45:42.072Z,6.60
2022-12-24T05:48:30.843Z,6.50
2022-12-24T05:51:24.494Z,6.60
2022-12-24T05:54:13.247Z,6.40
2022-12-24T05:57:03.449Z,6.50
2022-12-24T05:59:52.267Z,6.30
2022-12-24T06:02:41.122Z,6.40
2022-12-24T06:05:29.986Z,6.40
2022-12-24T06:08:19.564Z,6.30
2022-12-24T06:11:10.900Z,6.30
2022-12-24T06:14:01.759Z,6.30
2022-12-24T06:16:50.460Z,6.20
2022-12-24T06:19:39.442Z,6.20
2022-12-24T06:22:28.206Z,6.30
2022-12-24T06:25:16.978Z,6.40
2022-12-24T06:28:06.409Z,6.40
2022-12-24T06:31:02.405Z,6.40
2022-12-24T06:33:52.460Z,6.50
2022-12-24T06:36:41.423Z,6.30
2022-12-24T06:39:30.244Z,6.30
2022-12-24T06:42:18.900Z,6.30
2022-12-24T06:45:09.187Z,6.50
2022-12-24T06:47:59.497Z,6.60
2022-12-24T06:50:48.486Z,6.60
2022-12-24T06:53:37.426Z,6.60
2022-12-24T06:56:26.231Z,6.50
2022-12-24T06:59:15.079Z,6.60
2022-12-24T07:02:04.202Z,6.50
2022-12-24T07:04:54.483Z,6.40
2022-12-24T07:07:44.861Z,6.30
2022-12-24T07:10:33.654Z,6.40
2022-12-24T07:13:22.315Z,6.50
2022-12-24T07:16:11.506Z,6.50
2022-12-24T07:19:00.401Z,6.30
2022-12-24T07:21:50.865Z,6.30
2022-12-24T07:24:39.755Z,6.40
2022-12-24T07:27:28.525Z,6.40
2022-12-24T07:30:18.151Z,6.50
2022-12-24T07:33:08.466Z,6.70
2022-12-24T07:36:01.828Z,6.50
2022-12-24T07:38:52.756Z,6.50
2022-12-24T07:41:42.052Z,6.50
2022-12-24T07:44:30.978Z,6.40
2022-12-24T07:47:19.668Z,6.50
2022-12-24T07:50:09.381Z,6.40
2022-12-24T07:52:58.083Z,6.30
2022-12-24T07:55:48.388Z,6.40
2022-12-24T07:58:37.047Z,6.40
2022-12-24T08:01:25.977Z,6.30
2022-12-24T08:04:14.839Z,6.30
2022-12-24T08:07:03.745Z,6.50
2022-12-24T08:09:52.433Z,6.40
2022-12-24T08:12:43.038Z,6.60
2022-12-24T08:15:31.834Z,6.50
2022-12-24T08:18:20.661Z,6.50
2022-12-24T08:21:09.906Z,6.40
2022-12-24T08:23:58.618Z,6.60
2022-12-24T08:26:47.864Z,6.30
2022-12-24T08:29:38.052Z,6.30
2022-12-24T08:32:26.801Z,6.30
2022-12-24T08:35:15.584Z,6.30
2022-12-24T08:38:04.324Z,6.30
2022-12-24T08:40:54.722Z,6.50
2022-12-24T08:43:43.417Z,6.50
2022-12-24T08:46:33.577Z,6.40
2022-12-24T08:49:22.531Z,6.50
2022-12-24T08:52:11.718Z,6.50
2022-12-24T08:55:00.444Z,6.70
2022-12-24T08:57:49.241Z,6.70
2022-12-24T09:00:38.161Z,6.50
2022-12-24T09:03:28.949Z,6.40
2022-12-24T09:06:17.915Z,6.60
2022-12-24T09:09:07.550Z,6.60
2022-12-24T09:11:56.202Z,6.60
2022-12-24T09:14:45.754Z,6.50
2022-12-24T09:17:34.537Z,6.50
2022-12-24T09:20:24.688Z,6.40
2022-12-24T09:23:13.332Z,6.60
2022-12-24T09:26:02.324Z,6.50
2022-12-24T09:28:51.609Z,6.50
2022-12-24T09:31:40.564Z,6.70
2022-12-24T09:34:30.704Z,6.70
2022-12-24T09:37:21.186Z,6.60
2022-12-24T09:40:23.161Z,6.60
2022-12-24T09:43:16.931Z,6.70
2022-12-24T09:46:11.009Z,6.70
2022-12-24T09:49:05.679Z,6.80
2022-12-24T09:51:58.228Z,7.00
2022-12-24T09:54:57.390Z,6.80
2022-12-24T09:57:48.836Z,6.70
2022-12-24T10:00:43.191Z,6.80
2022-12-24T10:03:34.834Z,7.00
2022-12-24T10:06:29.696Z,6.70
2022-12-24T10:09:27.057Z,6.60
2022-12-24T10:12:26.562Z,6.80
2022-12-24T10:15:27.446Z,6.80
2022-12-24T10:18:28.796Z,7.00
2022-12-24T10:21:22.486Z,6.90
2022-12-24T10:24:18.008Z,7.00
2022-12-24T10:27:14.894Z,6.90
2022-12-24T10:30:17.548Z,6.80
2022-12-24T10:33:17.979Z,6.70
2022-12-24T10:36:12.531Z,6.80
2022-12-24T10:39:01.802Z,6.90
2022-12-24T10:41:53.123Z,6.90
2022-12-24T10:44:41.972Z,6.90
2022-12-24T10:47:35.613Z,6.80
2022-12-24T10:50:31.270Z,6.80
2022-12-24T10:53:25.480Z,6.70
2022-12-24T10:56:17.425Z,6.70
2022-12-24T10:59:06.672Z,6.70
2022-12-24T11:01:56.359Z,6.70
2022-12-24T11:04:51.814Z,6.50
2022-12-24T11:07:41.097Z,6.60
2022-12-24T11:10:31.092Z,6.60
2022-12-24T11:13:41.925Z,6.70
2022-12-24T11:16:33.399Z,6.80
2022-12-24T11:19:31.880Z,6.70
2022-12-24T11:22:25.885Z,6.50
2022-12-24T11:25:23.204Z,6.60
2022-12-24T11:28:14.126Z,6.80
2022-12-24T11:31:05.852Z,6.60
2022-12-24T11:33:54.820Z,6.70
2022-12-24T11:36:43.547Z,6.60
2022-12-24T11:39:41.020Z,6.50
2022-12-24T11:42:37.046Z,6.50
2022-12-24T11:45:28.874Z,6.60
2022-12-24T11:48:29.739Z,6.70
2022-12-24T11:51:24.428Z,6.40
2022-12-24T11:54:18.538Z,6.40
2022-12-24T11:57:13.681Z,6.40
2022-12-24T12:00:02.421Z,6.50
2022-12-24T12:02:55.805Z,6.60
2022-12-24T12:05:44.679Z,6.70
2022-12-24T12:08:34.571Z,6.50
2022-12-24T12:11:24.802Z,6.40
2022-12-24T12:14:21.528Z,6.30
2022-12-24T12:17:25.368Z,6.30
2022-12-24T12:20:19.237Z,6.50
2022-12-24T12:23:16.239Z,6.60
2022-12-24T12:26:09.506Z,6.40
2022-12-24T12:29:02.248Z,6.40
2022-12-24T12:31:58.383Z,6.50
2022-12-24T12:34:56.065Z,6.60
2022-12-24T12:37:47.511Z,6.70
2022-12-24T12:41:01.727Z,6.50
2022-12-24T12:44:22.877Z,6.60
2022-12-24T12:47:37.236Z,6.60
2022-12-24T12:50:33.301Z,6.70
2022-12-24T12:53:37.244Z,6.60
2022-12-24T12:56:31.539Z,6.60
2022-12-24T12:59:27.035Z,6.60
2022-12-24T13:02:57.925Z,6.50
2022-12-24T13:06:14.881Z,6.50
2022-12-24T13:09:30.501Z,6.60
2022-12-24T13:12:35.274Z,6.80
2022-12-24T13:15:51.328Z,6.60
2022-12-24T13:18:52.647Z,6.60
2022-12-24T13:21:45.514Z,6.50
2022-12-24T13:24:36.278Z,6.50
2022-12-24T13:27:28.726Z,6.40
2022-12-24T13:30:39.442Z,6.40
2022-12-24T13:33:51.195Z,6.50
2022-12-24T13:37:04.993Z,6.60
2022-12-24T13:40:14.984Z,6.60
2022-12-24T13:43:12.603Z,6.60
2022-12-24T13:46:01.363Z,6.50
2022-12-24T13:48:51.697Z,6.60
2022-12-24T13:51:40.706Z,6.60
2022-12-24T13:54:29.481Z,6.60
2022-12-24T13:57:41.672Z,6.40
2022-12-24T14:00:39.642Z,6.50
2022-12-24T14:03:33.754Z,6.40
2022-12-24T14:06:26.122Z,6.30
2022-12-24T14:09:18.863Z,6.50
2022-12-24T14:12:32.312Z,6.50
2022-12-24T14:15:54.328Z,6.50
2022-12-24T14:18:45.360Z,6.40
2022-12-24T14:21:38.654Z,6.40
2022-12-24T14:24:32.564Z,6.50
2022-12-24T14:27:26.228Z,6.60
2022-12-24T14:30:20.511Z,6.50
2022-12-24T14:33:29.961Z,6.50
2022-12-24T14:36:23.563Z,6.60
2022-12-24T14:39:25.430Z,6.70
2022-12-24T14:42:32.212Z,6.70
2022-12-24T14:45:29.330Z,6.50
2022-12-24T14:48:29.354Z,6.50
2022-12-24T14:51:24.187Z,6.60
2022-12-24T14:54:36.294Z,6.40
2022-12-24T14:57:28.354Z,6.30
2022-12-24T15:00:21.628Z,6.10
2022-12-24T15:03:14.890Z,6.00
2022-12-24T15:06:06.451Z,5.80
2022-12-24T15:08:55.494Z,5.70
2022-12-24T15:11:47.978Z,5.90
2022-12-24T15:14:43.053Z,5.90
2022-12-24T15:17:31.838Z,5.60
2022-12-24T15:20:23.642Z,5.70
2022-12-24T15:23:20.404Z,5.70
2022-12-24T15:26:16.041Z,5.50
2022-12-24T15:29:23.684Z,5.50
2022-12-24T15:32:14.767Z,5.60
2022-12-24T15:35:03.421Z,5.50
2022-12-24T15:37:52.315Z,5.40
2022-12-24T15:40:40.965Z,5.50
2022-12-24T15:43:31.546Z,5.60
2022-12-24T15:46:24.254Z,5.60
2022-12-24T15:49:18.699Z,5.70
2022-12-24T15:52:11.104Z,5.80
2022-12-24T15:55:01.463Z,5.60
2022-12-24T15:57:50.706Z,5.70
2022-12-24T16:00:39.605Z,5.80
2022-12-24T16:03:29.819Z,5.70
2022-12-24T16:06:19.032Z,5.70
2022-12-24T16:09:32.013Z,5.60
2022-12-24T16:12:22.938Z,5.70
2022-12-24T16:15:16.473Z,5.60
2022-12-24T16:18:06.099Z,5.50
2022-12-24T16:20:57.885Z,5.50
2022-12-24T16:23:49.229Z,5.60
2022-12-24T16:26:38.242Z,5.60
2022-12-24T16:29:27.843Z,5.60
2022-12-24T16:32:31.096Z,5.70
2022-12-24T16:35:26.927Z,5.70
2022-12-24T16:38:17.741Z,5.50
2022-12-24T16:41:06.686Z,5.70
2022-12-24T16:43:54.530Z,5.60
2022-12-24T16:46:43.292Z,5.40
2022-12-24T16:49:32.296Z,5.40
2022-12-24T16:52:25.347Z,5.40
2022-12-24T16:55:16.357Z,5.40
2022-12-24T16:58:05.115Z,5.50
2022-12-24T17:00:54.005Z,5.60
2022-12-24T17:03:42.869Z,5.60
2022-12-24T17:06:32.032Z,5.40
2022-12-24T17:09:21.693Z,5.50
2022-12-24T17:12:12.303Z,5.60
2022-12-24T17:15:01.050Z,5.40
2022-12-24T17:17:49.733Z,5.40
2022-12-24T17:20:38.400Z,5.50
2022-12-24T17:23:27.183Z,5.60
2022-12-24T17:26:17.398Z,5.50
2022-12-24T17:29:07.661Z,5.50
2022-12-24T17:31:56.380Z,5.50
2022-12-24T17:34:45.102Z,5.60
2022-12-24T17:37:33.952Z,5.50
2022-12-24T17:40:22.720Z,5.50
2022-12-24T17:43:11.537Z,5.50
2022-12-24T17:46:04.905Z,5.50
2022-12-24T17:48:54.291Z,5.50
2022-12-24T17:51:46.151Z,5.50
2022-12-24T17:54:34.897Z,5.30
2022-12-24T17:57:23.648Z,5.40
2022-12-24T18:00:13.834Z,5.50
2022-12-24T18:03:04.274Z,5.50
2022-12-24T18:05:53.707Z,5.50
2022-12-24T18:08:44.515Z,5.40
2022-12-24T18:11:34.745Z,5.40
2022-12-24T18:14:24.034Z,5.50
2022-12-24T18:17:12.765Z,5.60
2022-12-24T18:20:03.064Z,5.40
2022-12-24T18:22:51.800Z,5.40
2022-12-24T18:25:40.624Z,5.40
2022-12-24T18:28:29.435Z,5.30
2022-12-24T18:31:21.536Z,5.40
2022-12-24T18:34:13.750Z,5.60
2022-12-24T18:37:03.886Z,5.40
2022-12-24T18:39:52.568Z,5.40
2022-12-24T18:42:42.495Z,5.40
2022-12-24T18:45:31.278Z,5.40
2022-12-24T18:48:19.984Z,5.40
2022-12-24T18:51:10.089Z,5.40
2022-12-24T18:54:00.316Z,5.50
2022-12-24T18:56:51.424Z,5.40
2022-12-24T18:59:40.884Z,5.40
2022-12-24T19:02:30.021Z,5.30
2022-12-24T19:05:19.142Z,5.40
2022-12-24T19:08:37.656Z,5.40
2022-12-24T19:11:18.759Z,5.40
2022-12-24T19:14:08.728Z,5.40
2022-12-24T19:16:57.569Z,5.50
2022-12-24T19:19:46.416Z,5.50
2022-12-24T19:22:35.219Z,5.30
2022-12-24T19:25:23.875Z,5.40
2022-12-24T19:28:13.828Z,5.40
2022-12-24T19:31:06.766Z,5.50
2022-12-24T19:33:57.385Z,5.40
2022-12-24T19:36:48.172Z,5.30
2022-12-24T19:39:36.913Z,5.40
2022-12-24T19:42:25.781Z,5.30
2022-12-24T19:45:15.960Z,5.30
2022-12-24T19:48:05.031Z,5.30
2022-12-24T19:50:53.682Z,5.40
2022-12-24T19:53:42.610Z,5.30
2022-12-24T19:56:33.331Z,5.30
2022-12-24T19:59:22.045Z,5.20
2022-12-24T20:02:13.021Z,5.10
2022-12-24T20:05:01.983Z,5.10
2022-12-24T20:07:50.798Z,5.10
2022-12-24T20:10:40.926Z,5.20
2022-12-24T20:13:29.606Z,5.10
2022-12-24T20:16:20.946Z,5.00
2022-12-24T20:19:15.080Z,5.30
2022-12-24T20:22:03.884Z,5.30
2022-12-24T20:24:52.608Z,5.50
2022-12-24T20:27:41.264Z,5.60
2022-12-24T20:30:30.213Z,5.60
2022-12-24T20:33:18.922Z,5.60
2022-12-24T20:36:09.747Z,5.70
2022-12-24T20:38:59.388Z,5.80
2022-12-24T20:41:48.778Z,5.80
2022-12-24T20:44:37.727Z,5.70
2022-12-24T20:47:26.490Z,5.80
2022-12-24T20:50:15.204Z,5.70
2022-12-24T20:53:05.245Z,5.70
2022-12-24T20:55:55.061Z,5.50
2022-12-24T20:58:44.389Z,5.50
2022-12-24T21:01:34.438Z,5.40
2022-12-24T21:04:23.380Z,5.40
2022-12-24T21:07:15.322Z,5.30
2022-12-24T21:10:06.597Z,5.40
2022-12-24T21:12:58.782Z,5.60
2022-12-24T21:15:47.612Z,5.70
2022-12-24T21:18:36.490Z,5.70
2022-12-24T21:21:25.307Z,5.70
2022-12-24T21:24:14.915Z,5.80
2022-12-24T21:27:05.164Z,5.70
2022-12-24T21:29:53.856Z,5.90
2022-12-24T21:32:42.739Z,5.80
2022-12-24T21:35:31.779Z,5.80
2022-12-24T21:38:21.013Z,5.80
2022-12-24T21:41:11.823Z,5.80
2022-12-24T21:44:03.860Z,5.60
2022-12-24T21:46:52.642Z,5.60
2022-12-24T21:49:55.155Z,5.60
2022-12-24T21:52:44.104Z,5.70
2022-12-24T21:55:32.136Z,5.70
2022-12-24T21:58:20.845Z,5.60
2022-12-24T22:01:12.067Z,5.70
2022-12-24T22:04:01.021Z,5.60
2022-12-24T22:07:07.426Z,5.50
2022-12-24T22:10:13.555Z,5.50
2022-12-24T22:13:06.364Z,5.40
2022-12-24T22:15:55.580Z,5.30
2022-12-24T22:18:45.742Z,5.40
2022-12-24T22:21:34.612Z,5.40
2022-12-24T22:24:23.536Z,5.30
2022-12-24T22:27:12.223Z,5.40
2022-12-24T22:30:00.916Z,5.40
2022-12-24T22:32:49.553Z,5.60
2022-12-24T22:35:40.781Z,5.60
2022-12-24T22:38:29.413Z,5.60
2022-12-24T22:41:18.652Z,5.70
2022-12-24T22:44:07.377Z,5.70
2022-12-24T22:46:56.174Z,5.80
2022-12-24T22:49:45.132Z,5.90
2022-12-24T22:52:35.789Z,5.70
2022-12-24T22:55:24.433Z,5.60
2022-12-24T22:58:13.098Z,5.60
2022-12-24T23:01:02.145Z,5.70
2022-12-24T23:03:50.936Z,5.70
2022-12-24T23:06:40.541Z,5.60
2022-12-24T23:09:31.236Z,5.70
2022-12-24T23:12:39.991Z,5.60
2022-12-24T23:15:27.887Z,5.80
2022-12-24T23:18:16.891Z,5.70
2022-12-24T23:21:11.028Z,5.60
2022-12-24T23:24:01.737Z,5.50
2022-12-24T23:26:55.530Z,5.40
2022-12-24T23:29:44.264Z,5.50
2022-12-24T23:32:33.188Z,5.50
2022-12-24T23:35:21.989Z,5.60
2022-12-24T23:38:10.711Z,5.50
2022-12-24T23:41:00.794Z,5.50
2022-12-24T23:43:50.888Z,5.50
2022-12-24T23:46:39.707Z,5.60
2022-12-24T23:49:29.612Z,5.70
2022-12-24T23:52:18.774Z,5.70
2022-12-24T23:55:08.043Z,5.90
2022-12-24T23:58:00.696Z,5.90
